Time;durP1;ratioP1;P1;durP2;ratioP2;P2;SDS_P1;SDS_P2;PMS_P1;PMS_P2;Temp;Humidity;BMP_temperature;BMP_pressure;BME280_temperature;BME280_humidity;BME280_pressure;Samples;Min_cycle;Max_cycle;Signal;HPM_P1;HPM_P2
2022/10/11 00:03:22;;;;;;;7.67;4.80;;;10.50;1.00;;;;;;8368933;28;20322;-68
2022/10/11 00:07:23;;;;;;;9.10;5.17;;;10.50;1.00;;;;;;8374199;28;20227;-69
2022/10/11 00:11:23;;;;;;;6.90;4.97;;;10.50;99.90;;;;;;8373393;28;20216;-67
2022/10/11 00:15:24;;;;;;;7.40;4.97;;;10.50;99.90;;;;;;8370964;28;20226;-68
2022/10/11 00:19:25;;;;;;;9.93;5.87;;;10.60;99.90;;;;;;8370835;28;20212;-68
2022/10/11 00:23:26;;;;;;;9.10;5.43;;;10.70;99.90;;;;;;8375165;28;20190;-67
2022/10/11 00:27:27;;;;;;;10.53;5.10;;;10.80;99.90;;;;;;8373893;28;20263;-67
2022/10/11 00:31:28;;;;;;;7.40;5.13;;;10.80;1.00;;;;;;8374302;28;20491;-67
2022/10/11 00:35:28;;;;;;;5.77;4.63;;;10.80;1.00;;;;;;8374138;28;20185;-67
2022/10/11 00:39:29;;;;;;;7.77;5.20;;;10.90;1.00;;;;;;8373295;28;20230;-67
2022/10/11 00:43:31;;;;;;;9.27;5.70;;;10.90;1.00;;;;;;8374194;28;20186;-75
2022/10/11 00:47:32;;;;;;;7.23;5.13;;;11.00;99.90;;;;;;8375678;28;20192;-67
2022/10/11 00:51:59;;;;;;;13.90;5.33;;;11.10;99.90;;;;;;8374513;28;20594;-68
2022/10/11 00:56:08;;;;;;;11.33;4.67;;;11.20;1.00;;;;;;8376792;28;20269;-67
2022/10/11 01:00:12;;;;;;;9.60;4.37;;;11.40;1.00;;;;;;8374231;28;20224;-68
2022/10/11 01:04:13;;;;;;;7.50;4.90;;;11.50;99.90;;;;;;8373915;28;20203;-70
2022/10/11 01:08:14;;;;;;;12.30;4.57;;;11.70;44.00;;;;;;8371098;28;20194;-67
2022/10/11 01:12:18;;;;;;;12.17;4.70;;;11.90;99.90;;;;;;8384175;28;20192;-67
2022/10/11 01:16:29;;;;;;;6.33;4.47;;;12.00;1.00;;;;;;8383478;28;20249;-67
2022/10/11 01:20:40;;;;;;;9.17;4.00;;;11.90;99.90;;;;;;8384228;28;20231;-68
2022/10/11 01:24:59;;;;;;;8.23;4.90;;;11.90;99.90;;;;;;8385382;28;20194;-68
2022/10/11 01:29:40;;;;;;;6.87;4.23;;;11.80;99.90;;;;;;8383570;28;20294;-68
2022/10/11 01:33:47;;;;;;;7.93;4.17;;;11.70;1.00;;;;;;8399621;28;20196;-67
2022/10/11 01:38:26;;;;;;;8.27;4.63;;;11.60;99.90;;;;;;8383192;28;20268;-67
2022/10/11 01:42:28;;;;;;;7.50;4.47;;;11.50;99.90;;;;;;8384253;28;20242;-68
2022/10/11 01:46:31;;;;;;;9.43;4.73;;;11.40;1.00;;;;;;8383123;28;20212;-67
2022/10/11 01:50:39;;;;;;;8.43;4.53;;;11.30;99.90;;;;;;8378884;28;20204;-67
2022/10/11 01:55:09;;;;;;;10.33;4.73;;;11.30;1.00;;;;;;8384916;28;20188;-68
2022/10/11 01:59:51;;;;;;;10.70;4.70;;;11.20;1.00;;;;;;8384628;28;20216;-68
2022/10/11 02:04:23;;;;;;;7.60;4.67;;;11.10;99.90;;;;;;8380577;28;20233;-68
2022/10/11 02:08:28;;;;;;;13.37;4.83;;;11.00;1.00;;;;;;8386908;28;20192;-67
2022/10/11 02:12:42;;;;;;;9.00;5.10;;;10.90;1.00;;;;;;8383967;28;20305;-67
2022/10/11 02:16:56;;;;;;;9.93;4.97;;;10.80;99.90;;;;;;8401601;28;21385;-67
2022/10/11 02:21:02;;;;;;;8.50;4.90;;;10.70;37.10;;;;;;8382112;28;20199;-67
2022/10/11 02:25:08;;;;;;;6.87;4.50;;;10.80;1.00;;;;;;8380863;28;20195;-67
2022/10/11 02:29:11;;;;;;;12.23;5.33;;;10.90;99.90;;;;;;8378614;28;20190;-67
2022/10/11 02:33:16;;;;;;;8.90;5.67;;;10.90;99.90;;;;;;8379897;28;20184;-67
2022/10/11 02:37:38;;;;;;;10.67;5.63;;;10.90;99.90;;;;;;8376657;28;20222;-67
2022/10/11 02:41:42;;;;;;;8.60;5.10;;;10.90;99.90;;;;;;8372184;28;20188;-67
2022/10/11 02:45:47;;;;;;;6.70;4.67;;;10.90;99.90;;;;;;8377282;28;20268;-67
2022/10/11 02:49:48;;;;;;;11.07;5.47;;;10.90;99.90;;;;;;8377132;28;20225;-67
2022/10/11 02:53:49;;;;;;;10.60;5.40;;;10.90;99.90;;;;;;8378292;28;20219;-67
2022/10/11 02:57:50;;;;;;;10.43;4.80;;;10.90;99.90;;;;;;8378931;28;20246;-67
2022/10/11 03:01:50;;;;;;;8.10;4.70;;;10.90;99.90;;;;;;8385843;28;20632;-67
2022/10/11 03:05:57;;;;;;;9.00;5.17;;;10.90;99.90;;;;;;8378005;28;20199;-67
2022/10/11 03:09:58;;;;;;;8.93;5.30;;;11.00;99.90;;;;;;8377251;28;20214;-67
2022/10/11 03:13:59;;;;;;;5.90;5.27;;;11.00;99.90;;;;;;8379793;28;20259;-67
2022/10/11 03:18:00;;;;;;;7.93;5.50;;;11.10;1.00;;;;;;8374364;28;20221;-66
2022/10/11 03:22:00;;;;;;;8.03;5.20;;;11.10;1.00;;;;;;8375876;28;20188;-67
2022/10/11 03:26:01;;;;;;;6.47;4.80;;;11.20;40.60;;;;;;8376781;28;20238;-67
2022/10/11 03:30:02;;;;;;;6.97;5.47;;;11.20;99.90;;;;;;8377241;28;20317;-67
2022/10/11 03:34:03;;;;;;;8.33;5.60;;;11.20;29.10;;;;;;8376099;28;20446;-67
2022/10/11 03:38:04;;;;;;;10.97;5.80;;;11.20;1.00;;;;;;8378244;28;20231;-68
2022/10/11 03:42:05;;;;;;;8.40;4.90;;;11.20;1.00;;;;;;8379772;28;20482;-67
2022/10/11 03:46:05;;;;;;;8.80;5.40;;;11.20;99.90;;;;;;8368682;28;20215;-67
2022/10/11 03:50:07;;;;;;;9.77;5.30;;;11.20;99.90;;;;;;8377642;28;20197;-68
2022/10/11 03:54:08;;;;;;;8.83;4.60;;;11.20;1.00;;;;;;8375470;28;20188;-68
2022/10/11 03:58:09;;;;;;;6.40;4.63;;;11.20;99.90;;;;;;8376725;28;20207;-66
2022/10/11 04:02:09;;;;;;;8.60;5.30;;;11.20;99.90;;;;;;8376128;28;20291;-68
2022/10/11 04:06:10;;;;;;;8.47;5.37;;;11.20;99.90;;;;;;8375250;28;20279;-68
2022/10/11 04:10:11;;;;;;;7.73;4.70;;;11.20;1.00;;;;;;8375163;28;20192;-68
2022/10/11 04:14:12;;;;;;;6.10;4.97;;;11.10;99.90;;;;;;8377256;28;20609;-67
2022/10/11 04:18:13;;;;;;;8.20;4.90;;;11.10;99.90;;;;;;8375569;28;20209;-67
2022/10/11 04:22:13;;;;;;;8.77;5.70;;;11.10;99.90;;;;;;8375581;28;20192;-67
2022/10/11 04:26:14;;;;;;;9.83;5.53;;;11.10;99.90;;;;;;8373123;28;20558;-67
2022/10/11 04:30:15;;;;;;;10.83;5.00;;;11.00;99.90;;;;;;8375224;28;20185;-67
2022/10/11 04:34:16;;;;;;;7.93;4.93;;;11.00;15.30;;;;;;8376322;28;20223;-67
2022/10/11 04:38:17;;;;;;;8.53;5.00;;;11.00;99.90;;;;;;8369154;28;20201;-67
2022/10/11 04:42:19;;;;;;;8.50;5.10;;;10.90;1.00;;;;;;8377417;28;20182;-67
2022/10/11 04:46:20;;;;;;;8.07;4.50;;;10.80;1.00;;;;;;8368777;28;20188;-68
2022/10/11 04:50:21;;;;;;;9.47;4.93;;;10.70;99.90;;;;;;8377232;28;20192;-67
2022/10/11 04:54:22;;;;;;;7.03;5.10;;;10.50;99.90;;;;;;8376484;28;20190;-66
2022/10/11 04:58:23;;;;;;;7.87;5.03;;;10.30;1.00;;;;;;8372292;28;20291;-68
2022/10/11 05:02:23;;;;;;;7.20;4.73;;;10.20;1.00;;;;;;8370601;28;20199;-68
2022/10/11 05:06:24;;;;;;;5.90;4.60;;;10.00;31.90;;;;;;8375299;28;20185;-68
2022/10/11 05:10:25;;;;;;;8.37;4.23;;;9.80;99.90;;;;;;8373613;28;20254;-70
2022/10/11 05:14:26;;;;;;;9.63;4.30;;;9.70;99.90;;;;;;8376180;28;20193;-67
2022/10/11 05:18:27;;;;;;;10.53;4.27;;;9.50;99.90;;;;;;8374824;28;20217;-67
2022/10/11 05:22:27;;;;;;;6.57;4.17;;;9.30;99.90;;;;;;8374414;28;20181;-67
2022/10/11 05:26:28;;;;;;;7.40;4.67;;;9.20;99.90;;;;;;8371966;28;20189;-67
2022/10/11 05:30:29;;;;;;;11.43;4.33;;;9.10;99.90;;;;;;8374522;28;20185;-68
2022/10/11 05:34:30;;;;;;;7.33;4.90;;;9.00;99.90;;;;;;8373459;28;20189;-67
2022/10/11 05:38:30;;;;;;;8.27;5.27;;;8.90;99.90;;;;;;8369787;28;21268;-67
2022/10/11 05:42:31;;;;;;;8.13;5.33;;;8.90;99.90;;;;;;8375399;28;20181;-67
2022/10/11 05:46:32;;;;;;;7.53;5.40;;;8.80;99.90;;;;;;8374476;28;20181;-67
2022/10/11 05:50:33;;;;;;;6.70;5.10;;;8.80;99.90;;;;;;8371353;28;20223;-67
2022/10/11 05:54:34;;;;;;;7.80;4.67;;;8.70;99.90;;;;;;8373101;28;20189;-67
2022/10/11 05:58:35;;;;;;;9.20;5.40;;;8.60;99.90;;;;;;8380135;28;20276;-67
2022/10/11 06:02:36;;;;;;;9.27;5.33;;;8.60;99.90;;;;;;8381146;28;20197;-67
2022/10/11 06:06:36;;;;;;;8.10;5.20;;;8.60;99.90;;;;;;8379643;28;20189;-67
2022/10/11 06:10:38;;;;;;;8.77;5.60;;;8.60;99.90;;;;;;8381930;28;20200;-67
2022/10/11 06:14:39;;;;;;;6.57;4.87;;;8.70;99.90;;;;;;8379721;28;20284;-67
2022/10/11 06:18:40;;;;;;;10.90;5.30;;;8.80;99.90;;;;;;8380667;28;20209;-67
2022/10/11 06:22:41;;;;;;;11.30;5.40;;;8.90;99.90;;;;;;8383088;28;20193;-67
2022/10/11 06:26:42;;;;;;;8.00;4.73;;;8.90;99.90;;;;;;8377004;28;20186;-67
2022/10/11 06:30:43;;;;;;;7.10;4.70;;;9.00;99.90;;;;;;8380936;28;20193;-67
2022/10/11 06:34:43;;;;;;;9.27;4.60;;;9.10;99.90;;;;;;8380833;28;20204;-67
2022/10/11 06:38:44;;;;;;;8.87;4.33;;;9.20;99.90;;;;;;8378955;28;20213;-67
2022/10/11 06:42:48;;;;;;;10.97;4.43;;;9.20;99.90;;;;;;8379699;28;20200;-67
2022/10/11 06:46:49;;;;;;;6.80;3.60;;;9.30;99.90;;;;;;8393144;28;20201;-66
2022/10/11 06:50:49;;;;;;;12.53;3.70;;;9.50;99.90;;;;;;8379163;28;20197;-67
2022/10/11 06:54:50;;;;;;;7.00;3.23;;;9.50;99.90;;;;;;8379249;28;20231;-67
2022/10/11 06:58:52;;;;;;;10.93;3.50;;;9.60;99.90;;;;;;8377737;28;20220;-67
2022/10/11 07:02:53;;;;;;;8.97;3.60;;;9.70;99.90;;;;;;8376968;28;20198;-68
2022/10/11 07:06:54;;;;;;;8.53;2.80;;;9.80;99.90;;;;;;8375561;28;20228;-67
2022/10/11 07:11:03;;;;;;;6.33;2.80;;;9.90;99.90;;;;;;8376571;28;20204;-67
2022/10/11 07:15:04;;;;;;;6.77;2.47;;;10.00;99.90;;;;;;8377783;28;20201;-67
2022/10/11 07:19:05;;;;;;;6.60;2.13;;;10.10;99.90;;;;;;8377064;28;20217;-67
2022/10/11 07:23:06;;;;;;;7.30;2.20;;;10.20;99.90;;;;;;8375150;28;20212;-67
2022/10/11 07:27:07;;;;;;;8.97;2.27;;;10.30;99.90;;;;;;8375234;28;20186;-67
2022/10/11 07:31:17;;;;;;;11.60;2.67;;;10.40;99.90;;;;;;8374845;28;20555;-67
2022/10/11 07:35:17;;;;;;;10.30;2.00;;;10.50;99.90;;;;;;8375415;28;20661;-67
2022/10/11 07:39:18;;;;;;;10.47;2.83;;;10.60;99.90;;;;;;8372888;28;20225;-67
2022/10/11 07:43:19;;;;;;;8.80;2.20;;;10.70;99.90;;;;;;8374254;28;20516;-68
2022/10/11 07:47:20;;;;;;;10.20;2.53;;;10.80;99.90;;;;;;8374906;28;20266;-68
2022/10/11 07:51:22;;;;;;;8.40;2.00;;;11.00;99.90;;;;;;8375355;28;20182;-70
2022/10/11 07:55:24;;;;;;;9.53;2.00;;;11.00;99.90;;;;;;8377270;28;20193;-69
2022/10/11 07:59:25;;;;;;;7.97;1.97;;;11.10;99.90;;;;;;8375792;28;20229;-67
2022/10/11 08:03:26;;;;;;;9.00;2.00;;;11.20;99.90;;;;;;8376610;28;20285;-67
2022/10/11 08:07:28;;;;;;;10.97;2.07;;;11.30;99.90;;;;;;8375484;28;20189;-68
2022/10/11 08:11:35;;;;;;;9.93;2.00;;;11.50;1.00;;;;;;8372916;28;20196;-68
2022/10/11 08:15:36;;;;;;;6.87;1.63;;;11.60;1.00;;;;;;8378910;28;20192;-67
2022/10/11 08:19:36;;;;;;;10.57;1.80;;;11.80;99.90;;;;;;8374748;28;20207;-68
2022/10/11 08:23:38;;;;;;;13.83;2.03;;;11.90;99.90;;;;;;8375919;28;20180;-68
2022/10/11 08:27:42;;;;;;;5.53;1.63;;;12.10;99.90;;;;;;8375846;28;20191;-69
2022/10/11 08:31:43;;;;;;;10.83;2.20;;;12.10;99.90;;;;;;8374442;28;20196;-69
2022/10/11 08:35:44;;;;;;;7.60;2.00;;;12.20;27.60;;;;;;8377606;28;20188;-68
2022/10/11 08:39:45;;;;;;;10.50;1.70;;;12.30;1.00;;;;;;8374492;28;20204;-68
2022/10/11 08:43:58;;;;;;;6.73;1.53;;;12.40;1.00;;;;;;8373309;28;20182;-69
2022/10/11 08:48:24;;;;;;;13.57;2.80;;;12.50;1.00;;;;;;8374770;28;20189;-68
2022/10/11 08:52:41;;;;;;;8.27;1.87;;;12.70;99.90;;;;;;8376111;28;20213;-69
2022/10/11 08:56:43;;;;;;;6.70;1.50;;;12.80;99.90;;;;;;8373465;28;20201;-69
2022/10/11 09:00:47;;;;;;;6.43;1.60;;;12.90;99.90;;;;;;8373703;28;20209;-69
2022/10/11 09:04:51;;;;;;;13.37;1.53;;;13.00;99.90;;;;;;8375624;28;20181;-69
2022/10/11 09:09:06;;;;;;;8.37;1.80;;;13.10;99.90;;;;;;8376093;28;20231;-70
2022/10/11 09:13:19;;;;;;;9.30;1.87;;;12.90;99.90;;;;;;8374911;28;20494;-69
2022/10/11 09:17:38;;;;;;;7.27;1.50;;;13.10;99.90;;;;;;8372210;28;20200;-69
2022/10/11 09:22:02;;;;;;;7.00;1.47;;;13.20;99.90;;;;;;8370099;28;20512;-70
2022/10/11 09:26:18;;;;;;;7.37;1.63;;;13.40;99.90;;;;;;8372954;28;20266;-69
2022/10/11 09:30:19;;;;;;;14.13;2.10;;;13.20;99.90;;;;;;8375922;28;20215;-69
2022/10/11 09:34:24;;;;;;;9.30;1.63;;;12.90;99.90;;;;;;8383602;28;20213;-70
2022/10/11 09:38:28;;;;;;;9.20;2.00;;;13.00;99.90;;;;;;8382174;28;20216;-68
2022/10/11 09:42:29;;;;;;;7.70;1.20;;;13.00;99.90;;;;;;8378353;28;20209;-68
2022/10/11 09:46:33;;;;;;;6.63;1.23;;;13.00;99.90;;;;;;8379998;28;20186;-69
2022/10/11 09:50:34;;;;;;;7.00;1.83;;;13.00;99.90;;;;;;8377346;28;20189;-69
2022/10/11 09:54:44;;;;;;;6.67;1.43;;;13.10;99.90;;;;;;8382310;28;20181;-69
2022/10/11 09:58:45;;;;;;;8.83;1.50;;;13.30;99.90;;;;;;8377661;28;20259;-70
2022/10/11 10:02:50;;;;;;;3.90;1.10;;;13.20;99.90;;;;;;8381584;28;20201;-70
2022/10/11 10:07:11;;;;;;;6.50;1.43;;;13.30;99.90;;;;;;8378814;28;20185;-69
2022/10/11 10:11:14;;;;;;;4.93;1.20;;;13.10;99.90;;;;;;8381299;28;20193;-69
2022/10/11 10:15:18;;;;;;;6.33;1.43;;;13.10;99.90;;;;;;8381179;28;20185;-68
2022/10/11 10:19:20;;;;;;;4.67;1.20;;;13.00;99.90;;;;;;8382280;28;20213;-68
2022/10/11 10:23:21;;;;;;;6.73;1.97;;;12.80;99.20;;;;;;8378981;28;20193;-68
2022/10/11 10:27:28;;;;;;;8.87;2.20;;;13.10;99.90;;;;;;8379543;28;20228;-68
2022/10/11 10:31:36;;;;;;;6.47;1.23;;;13.30;97.90;;;;;;8376360;28;20605;-69
2022/10/11 10:36:11;;;;;;;6.67;1.47;;;13.60;83.30;;;;;;8381771;28;20197;-68
2022/10/11 10:40:23;;;;;;;8.13;1.50;;;13.60;16.00;;;;;;8363854;28;20225;-68
2022/10/11 10:44:24;;;;;;;10.27;1.87;;;13.90;1.00;;;;;;8379584;28;20189;-69
2022/10/11 10:48:41;;;;;;;3.83;1.00;;;14.60;1.00;;;;;;8379310;28;20189;-69
2022/10/11 10:53:39;;;;;;;9.57;1.60;;;14.70;1.00;;;;;;8380929;28;20263;-69
2022/10/11 20:04:10;;;;;;;2.93;1.40;;;4.10;99.90;;;;;;8494756;27;20331;-67
2022/10/11 20:08:11;;;;;;;1.67;1.10;;;4.00;99.90;;;;;;8454833;27;20194;-67
2022/10/11 20:12:12;;;;;;;3.97;1.23;;;3.90;99.90;;;;;;8468701;27;20716;-69
2022/10/11 20:16:20;;;;;;;2.83;1.40;;;3.90;1.00;;;;;;8449326;27;20186;-66
2022/10/11 20:20:21;;;;;;;2.97;1.30;;;3.80;99.90;;;;;;8443434;27;20180;-66
2022/10/11 20:24:21;;;;;;;2.83;1.83;;;3.80;99.90;;;;;;8449258;28;20200;-66
2022/10/11 20:28:22;;;;;;;3.27;1.70;;;3.80;99.90;;;;;;8445436;27;20269;-66
2022/10/11 20:32:23;;;;;;;2.87;1.50;;;3.70;99.90;;;;;;8458625;27;20190;-67
2022/10/11 20:36:28;;;;;;;3.03;1.70;;;3.70;99.90;;;;;;8446535;27;20194;-67
2022/10/11 20:40:29;;;;;;;3.57;1.47;;;3.60;99.90;;;;;;8441470;27;20214;-68
2022/10/11 20:44:29;;;;;;;2.43;1.60;;;3.60;99.90;;;;;;8461301;27;20193;-67
2022/10/11 20:48:31;;;;;;;3.53;1.80;;;3.60;99.90;;;;;;8441688;27;20230;-73
2022/10/11 20:52:31;;;;;;;2.40;1.57;;;3.50;99.90;;;;;;8442523;27;20316;-67
2022/10/11 20:56:33;;;;;;;3.67;2.00;;;3.40;99.90;;;;;;8441174;27;20309;-67
2022/10/11 21:00:34;;;;;;;2.60;1.60;;;3.40;99.90;;;;;;8421132;28;20224;-67
2022/10/11 21:04:35;;;;;;;2.80;1.60;;;3.30;99.90;;;;;;8441155;28;20271;-66
2022/10/11 21:08:36;;;;;;;2.00;1.70;;;3.30;99.90;;;;;;8439084;28;20186;-67
2022/10/11 21:12:37;;;;;;;2.27;1.73;;;3.20;99.90;;;;;;8432865;28;20195;-67
2022/10/11 21:16:38;;;;;;;4.17;1.80;;;3.20;99.90;;;;;;8416991;28;20214;-67
2022/10/11 21:20:40;;;;;;;3.50;2.20;;;3.20;99.90;;;;;;8399432;28;20219;-66
2022/10/11 21:24:41;;;;;;;3.80;2.30;;;3.20;99.90;;;;;;8396950;28;20184;-68
2022/10/11 21:28:44;;;;;;;2.57;1.90;;;3.10;99.90;;;;;;8399459;28;20182;-67
2022/10/11 21:32:44;;;;;;;2.90;1.93;;;3.10;99.90;;;;;;8415498;28;20193;-67
2022/10/11 21:36:45;;;;;;;2.13;1.70;;;3.10;99.90;;;;;;8416359;28;20185;-67
2022/10/11 21:40:46;;;;;;;3.20;1.90;;;3.00;99.90;;;;;;8412741;28;20219;-67
2022/10/11 21:44:47;;;;;;;4.87;1.87;;;3.00;99.90;;;;;;8414449;28;20195;-67
2022/10/11 21:48:49;;;;;;;4.40;2.10;;;2.90;99.90;;;;;;8413566;28;20222;-67
2022/10/11 21:52:49;;;;;;;3.00;2.00;;;2.90;99.90;;;;;;8415780;28;20189;-67
2022/10/11 21:56:50;;;;;;;5.57;2.00;;;2.90;99.90;;;;;;8413487;28;20211;-67
2022/10/11 22:00:51;;;;;;;3.27;2.40;;;2.80;99.90;;;;;;8409044;28;20208;-69
2022/10/11 22:04:52;;;;;;;4.07;2.10;;;2.80;99.90;;;;;;8395147;28;20215;-67
2022/10/11 22:08:53;;;;;;;4.60;2.20;;;2.80;99.90;;;;;;8394603;28;20185;-68
2022/10/11 22:12:54;;;;;;;3.90;2.40;;;2.80;99.90;;;;;;8395016;28;20196;-67
2022/10/11 22:16:55;;;;;;;4.37;2.33;;;2.80;99.90;;;;;;8415765;28;20202;-68
2022/10/11 22:21:10;;;;;;;3.27;2.37;;;2.70;99.90;;;;;;8396508;28;20200;-67
2022/10/11 22:25:11;;;;;;;3.17;2.23;;;2.60;99.90;;;;;;8413630;28;20186;-67
2022/10/11 22:29:12;;;;;;;5.07;2.33;;;2.50;99.90;;;;;;8393988;28;20770;-67
2022/10/11 22:33:13;;;;;;;5.43;2.40;;;2.40;99.90;;;;;;8394163;28;20184;-67
2022/10/11 22:37:14;;;;;;;3.67;2.37;;;2.40;99.90;;;;;;8410271;28;20180;-68
2022/10/11 22:41:14;;;;;;;5.10;2.93;;;2.30;99.90;;;;;;8392811;28;20342;-67
2022/10/11 22:45:15;;;;;;;3.53;2.53;;;2.30;99.90;;;;;;8409211;28;20231;-68
2022/10/11 22:49:16;;;;;;;3.40;2.40;;;2.30;99.90;;;;;;8408736;28;20180;-67
2022/10/11 22:53:17;;;;;;;4.07;2.40;;;2.30;99.90;;;;;;8393243;28;20593;-68
2022/10/11 22:57:18;;;;;;;5.37;2.60;;;2.30;99.90;;;;;;8409798;28;20212;-67
2022/10/11 23:01:19;;;;;;;5.23;2.70;;;2.20;99.90;;;;;;8393256;28;20222;-67
2022/10/11 23:05:20;;;;;;;3.53;2.37;;;2.20;99.90;;;;;;8393718;28;20195;-67
2022/10/11 23:09:20;;;;;;;6.63;3.13;;;2.20;99.90;;;;;;8411165;28;20192;-67
2022/10/11 23:13:21;;;;;;;4.57;2.97;;;2.10;99.90;;;;;;8395216;28;20196;-67
2022/10/11 23:17:22;;;;;;;5.37;3.60;;;2.10;99.90;;;;;;8413597;28;20196;-67
2022/10/11 23:21:23;;;;;;;6.10;2.87;;;2.10;99.90;;;;;;8394900;28;20212;-68
2022/10/11 23:25:23;;;;;;;5.87;3.33;;;2.20;99.90;;;;;;8409617;28;20271;-67
2022/10/11 23:29:24;;;;;;;6.63;3.57;;;2.20;99.90;;;;;;8393827;28;20195;-68
2022/10/11 23:33:26;;;;;;;7.00;4.73;;;2.20;99.90;;;;;;8411198;28;20196;-68
2022/10/11 23:37:27;;;;;;;11.03;5.87;;;2.20;99.90;;;;;;8411077;28;20193;-67
2022/10/11 23:41:29;;;;;;;10.53;6.63;;;2.10;99.90;;;;;;8394627;28;20257;-67
2022/10/11 23:45:29;;;;;;;11.27;7.03;;;2.10;99.90;;;;;;8393812;28;20192;-66
2022/10/11 23:49:30;;;;;;;12.20;7.13;;;2.20;99.90;;;;;;8408750;28;20195;-67
2022/10/11 23:53:31;;;;;;;10.90;6.27;;;2.10;99.90;;;;;;8410361;28;20203;-67
2022/10/11 23:57:31;;;;;;;7.87;5.40;;;2.10;99.90;;;;;;8393579;28;20240;-67
